sensor_id;sensor_type;location;lat;lon;timestamp;pressure;altitude;pressure_sealevel;temperature;humidity
63556;BME280;49700;48.072;7.800;2022-10-14T00:01:55;99703.00;;;14.92;nan
63556;BME280;49700;48.072;7.800;2022-10-14T00:04:20;99701.91;;;14.94;nan
63556;BME280;49700;48.072;7.800;2022-10-14T00:06:46;99694.09;;;14.93;nan
63556;BME280;49700;48.072;7.800;2022-10-14T00:09:12;99693.50;;;14.89;nan
63556;BME280;49700;48.072;7.800;2022-10-14T00:11:38;99700.72;;;14.87;nan
63556;BME280;49700;48.072;7.800;2022-10-14T00:14:11;99697.13;;;14.88;nan
63556;BME280;49700;48.072;7.800;2022-10-14T00:16:39;99696.25;;;14.88;nan
63556;BME280;49700;48.072;7.800;2022-10-14T00:19:08;99694.84;;;14.83;nan
63556;BME280;49700;48.072;7.800;2022-10-14T00:21:35;99691.22;;;14.85;nan
63556;BME280;49700;48.072;7.800;2022-10-14T00:24:00;99690.63;;;14.81;nan
63556;BME280;49700;48.072;7.800;2022-10-14T00:26:28;99689.91;;;14.79;nan
63556;BME280;49700;48.072;7.800;2022-10-14T00:28:55;99687.28;;;14.79;nan
63556;BME280;49700;48.072;7.800;2022-10-14T00:31:25;99679.22;;;14.80;nan
63556;BME280;49700;48.072;7.800;2022-10-14T00:33:51;99685.00;;;14.86;nan
63556;BME280;49700;48.072;7.800;2022-10-14T00:36:19;99679.44;;;14.89;nan
63556;BME280;49700;48.072;7.800;2022-10-14T00:38:45;99674.88;;;14.91;nan
63556;BME280;49700;48.072;7.800;2022-10-14T00:41:21;99675.72;;;14.91;nan
63556;BME280;49700;48.072;7.800;2022-10-14T00:43:51;99679.31;;;14.90;nan
63556;BME280;49700;48.072;7.800;2022-10-14T00:46:17;99684.59;;;14.90;nan
63556;BME280;49700;48.072;7.800;2022-10-14T00:48:43;99689.78;;;14.92;nan
63556;BME280;49700;48.072;7.800;2022-10-14T00:51:09;99678.13;;;14.94;nan
63556;BME280;49700;48.072;7.800;2022-10-14T00:53:35;99683.16;;;14.97;nan
63556;BME280;49700;48.072;7.800;2022-10-14T00:56:01;99679.44;;;15.00;nan
63556;BME280;49700;48.072;7.800;2022-10-14T00:58:28;99681.09;;;15.01;nan
63556;BME280;49700;48.072;7.800;2022-10-14T01:00:53;99683.63;;;15.02;nan
63556;BME280;49700;48.072;7.800;2022-10-14T01:03:21;99673.88;;;15.03;nan
63556;BME280;49700;48.072;7.800;2022-10-14T01:05:52;99681.72;;;15.04;nan
63556;BME280;49700;48.072;7.800;2022-10-14T01:08:26;99680.63;;;15.07;nan
63556;BME280;49700;48.072;7.800;2022-10-14T01:11:09;99684.22;;;15.06;nan
63556;BME280;49700;48.072;7.800;2022-10-14T01:13:41;99677.38;;;15.03;nan
63556;BME280;49700;48.072;7.800;2022-10-14T01:16:29;99666.19;;;15.00;nan
63556;BME280;49700;48.072;7.800;2022-10-14T01:19:21;99665.47;;;14.98;nan
63556;BME280;49700;48.072;7.800;2022-10-14T01:22:01;99677.03;;;14.97;nan
63556;BME280;49700;48.072;7.800;2022-10-14T01:24:39;99674.38;;;14.97;nan
63556;BME280;49700;48.072;7.800;2022-10-14T01:27:34;99674.38;;;14.97;nan
63556;BME280;49700;48.072;7.800;2022-10-14T01:30:22;99677.97;;;14.96;nan
63556;BME280;49700;48.072;7.800;2022-10-14T01:38:11;99661.03;;;14.98;nan
63556;BME280;49700;48.072;7.800;2022-10-14T01:40:51;99660.31;;;14.96;nan
63556;BME280;49700;48.072;7.800;2022-10-14T01:43:20;99657.06;;;14.93;nan
63556;BME280;49700;48.072;7.800;2022-10-14T01:45:48;99654.81;;;14.88;nan
63556;BME280;49700;48.072;7.800;2022-10-14T01:48:16;99664.09;;;14.82;nan
63556;BME280;49700;48.072;7.800;2022-10-14T01:50:46;99649.53;;;14.77;nan
63556;BME280;49700;48.072;7.800;2022-10-14T01:53:17;99648.00;;;14.74;nan
63556;BME280;49700;48.072;7.800;2022-10-14T01:55:45;99652.56;;;14.72;nan
63556;BME280;49700;48.072;7.800;2022-10-14T01:58:13;99651.59;;;14.73;nan
63556;BME280;49700;48.072;7.800;2022-10-14T02:00:39;99646.19;;;14.75;nan
63556;BME280;49700;48.072;7.800;2022-10-14T02:03:05;99640.91;;;14.75;nan
63556;BME280;49700;48.072;7.800;2022-10-14T02:05:37;99623.72;;;14.69;nan
63556;BME280;49700;48.072;7.800;2022-10-14T02:08:35;99627.81;;;14.62;nan
63556;BME280;49700;48.072;7.800;2022-10-14T02:11:12;99627.44;;;14.55;nan
63556;BME280;49700;48.072;7.800;2022-10-14T02:18:50;99613.28;;;14.56;nan
63556;BME280;49700;48.072;7.800;2022-10-14T02:21:23;99611.97;;;14.62;nan
63556;BME280;49700;48.072;7.800;2022-10-14T02:23:53;99609.91;;;14.66;nan
63556;BME280;49700;48.072;7.800;2022-10-14T02:26:23;99605.22;;;14.69;nan
63556;BME280;49700;48.072;7.800;2022-10-14T02:28:52;99606.78;;;14.72;nan
63556;BME280;49700;48.072;7.800;2022-10-14T02:31:19;99606.53;;;14.75;nan
63556;BME280;49700;48.072;7.800;2022-10-14T02:33:49;99595.94;;;14.75;nan
63556;BME280;49700;48.072;7.800;2022-10-14T02:36:18;99593.16;;;14.76;nan
63556;BME280;49700;48.072;7.800;2022-10-14T02:38:45;99584.97;;;14.79;nan
63556;BME280;49700;48.072;7.800;2022-10-14T02:41:15;99586.69;;;14.80;nan
63556;BME280;49700;48.072;7.800;2022-10-14T02:43:44;99578.59;;;14.82;nan
63556;BME280;49700;48.072;7.800;2022-10-14T02:46:11;99582.94;;;14.83;nan
63556;BME280;49700;48.072;7.800;2022-10-14T02:48:38;99586.28;;;14.85;nan
63556;BME280;49700;48.072;7.800;2022-10-14T02:51:04;99582.69;;;14.86;nan
63556;BME280;49700;48.072;7.800;2022-10-14T02:53:29;99576.31;;;14.89;nan
63556;BME280;49700;48.072;7.800;2022-10-14T02:55:56;99579.69;;;14.91;nan
63556;BME280;49700;48.072;7.800;2022-10-14T02:58:22;99576.06;;;14.92;nan
63556;BME280;49700;48.072;7.800;2022-10-14T03:00:48;99577.88;;;14.91;nan
63556;BME280;49700;48.072;7.800;2022-10-14T03:03:14;99568.97;;;14.92;nan
63556;BME280;49700;48.072;7.800;2022-10-14T03:05:40;99574.38;;;14.91;nan
63556;BME280;49700;48.072;7.800;2022-10-14T03:08:10;99565.47;;;14.92;nan
63556;BME280;49700;48.072;7.800;2022-10-14T03:10:37;99568.13;;;14.92;nan
63556;BME280;49700;48.072;7.800;2022-10-14T03:13:02;99567.88;;;14.95;nan
63556;BME280;49700;48.072;7.800;2022-10-14T03:15:34;99559.81;;;14.96;nan
63556;BME280;49700;48.072;7.800;2022-10-14T03:17:59;99560.66;;;14.97;nan
63556;BME280;49700;48.072;7.800;2022-10-14T03:20:34;99555.22;;;14.98;nan
63556;BME280;49700;48.072;7.800;2022-10-14T03:22:59;99552.72;;;14.97;nan
63556;BME280;49700;48.072;7.800;2022-10-14T03:25:25;99562.56;;;14.95;nan
63556;BME280;49700;48.072;7.800;2022-10-14T03:27:58;99555.72;;;14.92;nan
63556;BME280;49700;48.072;7.800;2022-10-14T03:30:35;99561.03;;;14.92;nan
63556;BME280;49700;48.072;7.800;2022-10-14T03:33:07;99557.44;;;14.93;nan
63556;BME280;49700;48.072;7.800;2022-10-14T03:35:50;99554.91;;;14.92;nan
63556;BME280;49700;48.072;7.800;2022-10-14T03:38:20;99551.28;;;14.93;nan
63556;BME280;49700;48.072;7.800;2022-10-14T03:40:46;99546.72;;;14.95;nan
63556;BME280;49700;48.072;7.800;2022-10-14T03:43:12;99545.88;;;14.94;nan
63556;BME280;49700;48.072;7.800;2022-10-14T03:45:57;99550.34;;;14.94;nan
63556;BME280;49700;48.072;7.800;2022-10-14T03:48:24;99545.97;;;14.93;nan
63556;BME280;49700;48.072;7.800;2022-10-14T03:50:49;99540.69;;;14.93;nan
63556;BME280;49700;48.072;7.800;2022-10-14T03:53:17;99538.91;;;14.93;nan
63556;BME280;49700;48.072;7.800;2022-10-14T03:55:43;99530.00;;;14.94;nan
63556;BME280;49700;48.072;7.800;2022-10-14T03:58:10;99529.84;;;14.96;nan
63556;BME280;49700;48.072;7.800;2022-10-14T04:00:36;99520.97;;;14.97;nan
63556;BME280;49700;48.072;7.800;2022-10-14T04:03:33;99524.56;;;14.96;nan
63556;BME280;49700;48.072;7.800;2022-10-14T04:05:59;99518.44;;;14.95;nan
63556;BME280;49700;48.072;7.800;2022-10-14T04:08:27;99514.13;;;14.94;nan
63556;BME280;49700;48.072;7.800;2022-10-14T04:10:57;99518.59;;;14.94;nan
63556;BME280;49700;48.072;7.800;2022-10-14T04:13:24;99512.59;;;14.92;nan
63556;BME280;49700;48.072;7.800;2022-10-14T04:15:50;99500.34;;;14.91;nan
63556;BME280;49700;48.072;7.800;2022-10-14T04:18:23;99504.19;;;14.87;nan
63556;BME280;49700;48.072;7.800;2022-10-14T04:20:50;99498.19;;;14.85;nan
63556;BME280;49700;48.072;7.800;2022-10-14T04:23:19;99495.06;;;14.79;nan
63556;BME280;49700;48.072;7.800;2022-10-14T04:25:48;99501.34;;;14.78;nan
63556;BME280;49700;48.072;7.800;2022-10-14T04:28:14;99497.97;;;14.76;nan
63556;BME280;49700;48.072;7.800;2022-10-14T04:30:47;99484.91;;;14.75;nan
63556;BME280;49700;48.072;7.800;2022-10-14T04:33:21;99487.66;;;14.73;nan
63556;BME280;49700;48.072;7.800;2022-10-14T04:35:47;99475.41;;;14.72;nan
63556;BME280;49700;48.072;7.800;2022-10-14T04:38:20;99480.44;;;14.75;nan
63556;BME280;49700;48.072;7.800;2022-10-14T04:40:53;99476.72;;;14.78;nan
63556;BME280;49700;48.072;7.800;2022-10-14T04:43:19;99476.56;;;14.79;nan
63556;BME280;49700;48.072;7.800;2022-10-14T04:45:46;99474.66;;;14.81;nan
63556;BME280;49700;48.072;7.800;2022-10-14T04:48:18;99471.16;;;14.81;nan
63556;BME280;49700;48.072;7.800;2022-10-14T04:50:45;99472.00;;;14.81;nan
63556;BME280;49700;48.072;7.800;2022-10-14T04:53:38;99466.84;;;14.80;nan
63556;BME280;49700;48.072;7.800;2022-10-14T04:56:32;99460.59;;;14.81;nan
63556;BME280;49700;48.072;7.800;2022-10-14T04:59:00;99461.31;;;14.83;nan
63556;BME280;49700;48.072;7.800;2022-10-14T05:01:47;99446.28;;;14.83;nan
63556;BME280;49700;48.072;7.800;2022-10-14T05:04:13;99449.63;;;14.86;nan
63556;BME280;49700;48.072;7.800;2022-10-14T05:06:40;99448.66;;;14.87;nan
63556;BME280;49700;48.072;7.800;2022-10-14T05:09:09;99449.38;;;14.89;nan
63556;BME280;49700;48.072;7.800;2022-10-14T05:11:35;99452.72;;;14.91;nan
63556;BME280;49700;48.072;7.800;2022-10-14T05:14:01;99456.94;;;14.93;nan
63556;BME280;49700;48.072;7.800;2022-10-14T05:16:28;99442.84;;;14.93;nan
63556;BME280;49700;48.072;7.800;2022-10-14T05:18:54;99440.19;;;14.93;nan
63556;BME280;49700;48.072;7.800;2022-10-14T05:21:21;99438.53;;;14.92;nan
63556;BME280;49700;48.072;7.800;2022-10-14T05:23:58;99441.91;;;14.94;nan
63556;BME280;49700;48.072;7.800;2022-10-14T05:26:26;99441.06;;;14.93;nan
63556;BME280;49700;48.072;7.800;2022-10-14T05:28:52;99441.91;;;14.94;nan
63556;BME280;49700;48.072;7.800;2022-10-14T05:31:19;99440.09;;;14.94;nan
63556;BME280;49700;48.072;7.800;2022-10-14T05:33:52;99437.28;;;14.96;nan
63556;BME280;49700;48.072;7.800;2022-10-14T05:36:18;99437.28;;;14.96;nan
63556;BME280;49700;48.072;7.800;2022-10-14T05:38:43;99433.81;;;14.95;nan
63556;BME280;49700;48.072;7.800;2022-10-14T05:41:09;99430.34;;;14.95;nan
63556;BME280;49700;48.072;7.800;2022-10-14T05:43:34;99423.38;;;14.94;nan
63556;BME280;49700;48.072;7.800;2022-10-14T05:46:03;99418.78;;;14.96;nan
63556;BME280;49700;48.072;7.800;2022-10-14T05:48:32;99422.84;;;15.00;nan
63556;BME280;49700;48.072;7.800;2022-10-14T05:50:58;99424.41;;;15.02;nan
63556;BME280;49700;48.072;7.800;2022-10-14T05:53:26;99421.50;;;15.05;nan
63556;BME280;49700;48.072;7.800;2022-10-14T05:56:05;99421.38;;;15.07;nan
63556;BME280;49700;48.072;7.800;2022-10-14T05:58:31;99422.06;;;15.09;nan
63556;BME280;49700;48.072;7.800;2022-10-14T06:00:59;99412.34;;;15.10;nan
63556;BME280;49700;48.072;7.800;2022-10-14T06:03:25;99420.28;;;15.10;nan
63556;BME280;49700;48.072;7.800;2022-10-14T06:05:50;99417.47;;;15.11;nan
63556;BME280;49700;48.072;7.800;2022-10-14T06:08:16;99422.91;;;15.10;nan
63556;BME280;49700;48.072;7.800;2022-10-14T06:10:42;99424.25;;;15.04;nan
63556;BME280;49700;48.072;7.800;2022-10-14T06:13:07;99425.50;;;15.00;nan
63556;BME280;49700;48.072;7.800;2022-10-14T06:15:36;99428.66;;;14.94;nan
63556;BME280;49700;48.072;7.800;2022-10-14T06:18:01;99431.56;;;14.91;nan
63556;BME280;49700;48.072;7.800;2022-10-14T06:20:27;99426.28;;;14.91;nan
63556;BME280;49700;48.072;7.800;2022-10-14T06:22:52;99426.28;;;14.91;nan
63556;BME280;49700;48.072;7.800;2022-10-14T06:25:18;99425.31;;;14.92;nan
63556;BME280;49700;48.072;7.800;2022-10-14T06:27:43;99418.22;;;14.92;nan
63556;BME280;49700;48.072;7.800;2022-10-14T06:30:09;99421.56;;;14.94;nan
63556;BME280;49700;48.072;7.800;2022-10-14T06:32:35;99422.28;;;14.96;nan
63556;BME280;49700;48.072;7.800;2022-10-14T06:35:00;99425.50;;;15.00;nan
63556;BME280;49700;48.072;7.800;2022-10-14T06:37:26;99423.56;;;15.02;nan
63556;BME280;49700;48.072;7.800;2022-10-14T06:39:51;99430.53;;;15.03;nan
63556;BME280;49700;48.072;7.800;2022-10-14T06:42:17;99433.16;;;15.03;nan
63556;BME280;49700;48.072;7.800;2022-10-14T06:44:43;99427.59;;;15.06;nan
63556;BME280;49700;48.072;7.800;2022-10-14T06:47:09;99425.56;;;15.10;nan
63556;BME280;49700;48.072;7.800;2022-10-14T06:49:35;99428.88;;;15.12;nan
63556;BME280;49700;48.072;7.800;2022-10-14T06:52:00;99423.34;;;15.15;nan
63556;BME280;49700;48.072;7.800;2022-10-14T06:54:26;99427.53;;;15.17;nan
63556;BME280;49700;48.072;7.800;2022-10-14T06:56:51;99435.09;;;15.22;nan
63556;BME280;49700;48.072;7.800;2022-10-14T06:59:16;99429.53;;;15.25;nan
63556;BME280;49700;48.072;7.800;2022-10-14T07:01:42;99432.63;;;15.30;nan
63556;BME280;49700;48.072;7.800;2022-10-14T07:04:07;99431.25;;;15.36;nan
63556;BME280;49700;48.072;7.800;2022-10-14T07:06:33;99426.41;;;15.41;nan
63556;BME280;49700;48.072;7.800;2022-10-14T07:08:58;99432.84;;;15.48;nan
63556;BME280;49700;48.072;7.800;2022-10-14T07:11:23;99422.69;;;15.53;nan
63556;BME280;49700;48.072;7.800;2022-10-14T07:13:49;99427.44;;;15.59;nan
63556;BME280;49700;48.072;7.800;2022-10-14T07:16:14;99429.81;;;15.62;nan
63556;BME280;49700;48.072;7.800;2022-10-14T07:18:40;99428.72;;;15.65;nan
63556;BME280;49700;48.072;7.800;2022-10-14T07:21:06;99430.03;;;15.70;nan
63556;BME280;49700;48.072;7.800;2022-10-14T07:23:32;99425.16;;;15.76;nan
63556;BME280;49700;48.072;7.800;2022-10-14T07:25:59;99419.47;;;15.80;nan
63556;BME280;49700;48.072;7.800;2022-10-14T07:28:24;99430.63;;;15.84;nan
63556;BME280;49700;48.072;7.800;2022-10-14T07:31:16;99430.22;;;15.88;nan
63556;BME280;49700;48.072;7.800;2022-10-14T07:33:42;99427.41;;;15.90;nan
63556;BME280;49700;48.072;7.800;2022-10-14T07:36:10;99435.94;;;15.93;nan
63556;BME280;49700;48.072;7.800;2022-10-14T07:38:37;99441.09;;;15.95;nan
63556;BME280;49700;48.072;7.800;2022-10-14T07:41:09;99443.47;;;15.98;nan
63556;BME280;49700;48.072;7.800;2022-10-14T07:43:41;99447.81;;;15.99;nan
63556;BME280;49700;48.072;7.800;2022-10-14T07:46:07;99444.19;;;16.00;nan
63556;BME280;49700;48.072;7.800;2022-10-14T07:48:34;99443.34;;;16.00;nan
63556;BME280;49700;48.072;7.800;2022-10-14T07:50:59;99446.81;;;16.00;nan
63556;BME280;49700;48.072;7.800;2022-10-14T07:53:26;99446.81;;;16.00;nan
63556;BME280;49700;48.072;7.800;2022-10-14T07:55:52;99452.13;;;16.00;nan
63556;BME280;49700;48.072;7.800;2022-10-14T07:58:22;99445.72;;;16.03;nan
63556;BME280;49700;48.072;7.800;2022-10-14T08:00:48;99453.53;;;16.04;nan
63556;BME280;49700;48.072;7.800;2022-10-14T08:03:15;99451.72;;;16.05;nan
63556;BME280;49700;48.072;7.800;2022-10-14T08:05:40;99442.66;;;16.07;nan
63556;BME280;49700;48.072;7.800;2022-10-14T08:08:06;99443.22;;;16.11;nan
63556;BME280;49700;48.072;7.800;2022-10-14T08:10:32;99445.59;;;16.14;nan
63556;BME280;49700;48.072;7.800;2022-10-14T08:12:58;99440.88;;;16.18;nan
63556;BME280;49700;48.072;7.800;2022-10-14T08:15:25;99434.59;;;16.19;nan
63556;BME280;49700;48.072;7.800;2022-10-14T08:17:53;99443.91;;;16.23;nan
63556;BME280;49700;48.072;7.800;2022-10-14T08:20:19;99444.34;;;16.28;nan
63556;BME280;49700;48.072;7.800;2022-10-14T08:22:44;99443.94;;;16.32;nan
63556;BME280;49700;48.072;7.800;2022-10-14T08:25:10;99447.84;;;16.38;nan
63556;BME280;49700;48.072;7.800;2022-10-14T08:27:35;99448.28;;;16.43;nan
63556;BME280;49700;48.072;7.800;2022-10-14T08:30:01;99452.34;;;16.47;nan
63556;BME280;49700;48.072;7.800;2022-10-14T08:32:26;99448.28;;;16.53;nan
63556;BME280;49700;48.072;7.800;2022-10-14T08:34:52;99442.53;;;16.57;nan
63556;BME280;49700;48.072;7.800;2022-10-14T08:37:20;99442.53;;;16.57;nan
63556;BME280;49700;48.072;7.800;2022-10-14T08:39:45;99452.88;;;16.60;nan
63556;BME280;49700;48.072;7.800;2022-10-14T08:42:33;99452.47;;;16.65;nan
63556;BME280;49700;48.072;7.800;2022-10-14T08:45:04;99448.69;;;16.68;nan
63556;BME280;49700;48.072;7.800;2022-10-14T08:47:41;99435.00;;;16.72;nan
63556;BME280;49700;48.072;7.800;2022-10-14T08:50:33;99432.91;;;16.76;nan
63556;BME280;49700;48.072;7.800;2022-10-14T08:53:08;99432.66;;;16.79;nan
63556;BME280;49700;48.072;7.800;2022-10-14T08:55:46;99437.25;;;16.87;nan
63556;BME280;49700;48.072;7.800;2022-10-14T08:58:21;99438.50;;;16.92;nan
63556;BME280;49700;48.072;7.800;2022-10-14T09:00:52;99430.94;;;16.97;nan
63556;BME280;49700;48.072;7.800;2022-10-14T09:03:22;99439.91;;;16.96;nan
63556;BME280;49700;48.072;7.800;2022-10-14T09:08:34;99438.78;;;16.99;nan
63556;BME280;49700;48.072;7.800;2022-10-14T09:11:04;99430.13;;;16.97;nan
63556;BME280;49700;48.072;7.800;2022-10-14T09:13:37;99437.53;;;16.93;nan
63556;BME280;49700;48.072;7.800;2022-10-14T09:16:16;99436.69;;;16.93;nan
63556;BME280;49700;48.072;7.800;2022-10-14T09:18:47;99431.25;;;16.94;nan
63556;BME280;49700;48.072;7.800;2022-10-14T09:23:46;99417.25;;;17.02;nan
63556;BME280;49700;48.072;7.800;2022-10-14T09:26:15;99421.28;;;17.06;nan
63556;BME280;49700;48.072;7.800;2022-10-14T09:28:43;99417.50;;;17.09;nan
63556;BME280;49700;48.072;7.800;2022-10-14T09:31:11;99420.56;;;17.14;nan
63556;BME280;49700;48.072;7.800;2022-10-14T09:33:37;99421.69;;;17.21;nan
63556;BME280;49700;48.072;7.800;2022-10-14T09:36:18;99408.81;;;17.26;nan
63556;BME280;49700;48.072;7.800;2022-10-14T09:38:46;99412.72;;;17.32;nan
63556;BME280;49700;48.072;7.800;2022-10-14T09:41:14;99407.94;;;17.35;nan
63556;BME280;49700;48.072;7.800;2022-10-14T09:46:46;99401.50;;;17.38;nan
63556;BME280;49700;48.072;7.800;2022-10-14T09:49:16;99409.84;;;17.43;nan
63556;BME280;49700;48.072;7.800;2022-10-14T09:51:43;99410.97;;;17.50;nan
63556;BME280;49700;48.072;7.800;2022-10-14T09:54:20;99410.06;;;17.59;nan
63556;BME280;49700;48.072;7.800;2022-10-14T09:56:46;99404.72;;;17.69;nan
63556;BME280;49700;48.072;7.800;2022-10-14T09:59:17;99407.03;;;17.82;nan
63556;BME280;49700;48.072;7.800;2022-10-14T10:02:00;99401.38;;;17.95;nan
63556;BME280;49700;48.072;7.800;2022-10-14T10:04:40;99393.72;;;18.09;nan
63556;BME280;49700;48.072;7.800;2022-10-14T10:07:40;99393.72;;;18.27;nan
63556;BME280;49700;48.072;7.800;2022-10-14T10:10:23;99399.16;;;18.44;nan
63556;BME280;49700;48.072;7.800;2022-10-14T10:12:49;99395.81;;;18.60;nan
63556;BME280;49700;48.072;7.800;2022-10-14T10:15:19;99398.53;;;18.68;nan
63556;BME280;49700;48.072;7.800;2022-10-14T10:17:49;99389.41;;;18.70;nan
63556;BME280;49700;48.072;7.800;2022-10-14T10:22:43;99387.97;;;18.76;nan
63556;BME280;49700;48.072;7.800;2022-10-14T10:27:39;99389.66;;;18.77;nan
63556;BME280;49700;48.072;7.800;2022-10-14T10:38:07;99387.84;;;18.77;nan
63556;BME280;49700;48.072;7.800;2022-10-14T10:41:11;99381.50;;;18.78;nan
63556;BME280;49700;48.072;7.800;2022-10-14T10:47:00;99366.59;;;18.86;nan
63556;BME280;49700;48.072;7.800;2022-10-14T11:01:00;99358.25;;;19.07;nan
63556;BME280;49700;48.072;7.800;2022-10-14T11:03:48;99347.78;;;19.13;nan
63556;BME280;49700;48.072;7.800;2022-10-14T11:06:28;99348.16;;;19.18;nan
63556;BME280;49700;48.072;7.800;2022-10-14T11:09:25;99348.00;;;19.20;nan
63556;BME280;49700;48.072;7.800;2022-10-14T11:12:24;99342.47;;;19.13;nan
63556;BME280;49700;48.072;7.800;2022-10-14T11:20:15;99327.13;;;19.07;nan
63556;BME280;49700;48.072;7.800;2022-10-14T11:28:31;99323.69;;;19.15;nan
63556;BME280;49700;48.072;7.800;2022-10-14T11:31:08;99316.72;;;19.22;nan
63556;BME280;49700;48.072;7.800;2022-10-14T11:33:47;99310.75;;;19.28;nan
63556;BME280;49700;48.072;7.800;2022-10-14T11:42:24;99309.28;;;19.34;nan
63556;BME280;49700;48.072;7.800;2022-10-14T11:45:05;99294.13;;;19.34;nan
63556;BME280;49700;48.072;7.800;2022-10-14T11:47:38;99299.59;;;19.33;nan
63556;BME280;49700;48.072;7.800;2022-10-14T11:50:36;99293.31;;;19.34;nan
63556;BME280;49700;48.072;7.800;2022-10-14T11:53:09;99292.44;;;19.33;nan
63556;BME280;49700;48.072;7.800;2022-10-14T11:55:41;99285.31;;;19.34;nan
63556;BME280;49700;48.072;7.800;2022-10-14T11:58:13;99282.66;;;19.34;nan
63556;BME280;49700;48.072;7.800;2022-10-14T12:00:42;99286.63;;;19.38;nan
63556;BME280;49700;48.072;7.800;2022-10-14T12:03:26;99281.19;;;19.48;nan
63556;BME280;49700;48.072;7.800;2022-10-14T12:06:11;99280.53;;;19.54;nan
63556;BME280;49700;48.072;7.800;2022-10-14T12:08:56;99274.69;;;19.50;nan
63556;BME280;49700;48.072;7.800;2022-10-14T12:11:33;99282.16;;;19.46;nan
63556;BME280;49700;48.072;7.800;2022-10-14T12:14:10;99274.16;;;19.46;nan
63556;BME280;49700;48.072;7.800;2022-10-14T12:16:43;99276.34;;;19.51;nan
63556;BME280;49700;48.072;7.800;2022-10-14T12:19:12;99279.69;;;19.53;nan
63556;BME280;49700;48.072;7.800;2022-10-14T12:24:19;99280.66;;;19.44;nan
63556;BME280;49700;48.072;7.800;2022-10-14T12:26:50;99280.34;;;19.39;nan
63556;BME280;49700;48.072;7.800;2022-10-14T12:29:19;99269.97;;;19.28;nan
63556;BME280;49700;48.072;7.800;2022-10-14T12:34:40;99264.72;;;19.01;nan
63556;BME280;49700;48.072;7.800;2022-10-14T12:39:51;99258.16;;;18.79;nan
63556;BME280;49700;48.072;7.800;2022-10-14T12:42:18;99273.75;;;18.74;nan
63556;BME280;49700;48.072;7.800;2022-10-14T12:47:34;99271.97;;;18.65;nan
63556;BME280;49700;48.072;7.800;2022-10-14T12:50:24;99273.31;;;18.61;nan
63556;BME280;49700;48.072;7.800;2022-10-14T12:53:03;99275.59;;;18.56;nan
63556;BME280;49700;48.072;7.800;2022-10-14T12:55:45;99282.75;;;18.55;nan
63556;BME280;49700;48.072;7.800;2022-10-14T12:58:28;99277.25;;;18.57;nan
63556;BME280;49700;48.072;7.800;2022-10-14T13:01:05;99273.63;;;18.58;nan
63556;BME280;49700;48.072;7.800;2022-10-14T13:03:35;99275.97;;;18.61;nan
63556;BME280;49700;48.072;7.800;2022-10-14T13:11:35;99279.59;;;18.60;nan
63556;BME280;49700;48.072;7.800;2022-10-14T13:14:20;99284.91;;;18.60;nan
63556;BME280;49700;48.072;7.800;2022-10-14T13:19:38;99276.38;;;18.48;nan
63556;BME280;49700;48.072;7.800;2022-10-14T13:25:00;99274.88;;;18.46;nan
63556;BME280;49700;48.072;7.800;2022-10-14T13:28:01;99282.53;;;18.49;nan
63556;BME280;49700;48.072;7.800;2022-10-14T13:30:35;99282.91;;;18.54;nan
63556;BME280;49700;48.072;7.800;2022-10-14T13:33:19;99280.91;;;18.56;nan
63556;BME280;49700;48.072;7.800;2022-10-14T13:36:09;99281.44;;;18.60;nan
63556;BME280;49700;48.072;7.800;2022-10-14T13:38:37;99282.13;;;18.62;nan
63556;BME280;49700;48.072;7.800;2022-10-14T13:41:14;99285.28;;;18.65;nan
63556;BME280;49700;48.072;7.800;2022-10-14T13:43:42;99293.13;;;18.67;nan
63556;BME280;49700;48.072;7.800;2022-10-14T13:46:12;99293.94;;;18.67;nan
63556;BME280;49700;48.072;7.800;2022-10-14T13:48:45;99297.28;;;18.69;nan
63556;BME280;49700;48.072;7.800;2022-10-14T13:53:50;99297.13;;;18.71;nan
63556;BME280;49700;48.072;7.800;2022-10-14T13:58:49;99302.06;;;18.66;nan
63556;BME280;49700;48.072;7.800;2022-10-14T14:01:17;99304.91;;;18.64;nan
63556;BME280;49700;48.072;7.800;2022-10-14T14:03:44;99307.88;;;18.61;nan
63556;BME280;49700;48.072;7.800;2022-10-14T14:06:16;99305.53;;;18.58;nan
63556;BME280;49700;48.072;7.800;2022-10-14T14:08:50;99296.56;;;18.59;nan
63556;BME280;49700;48.072;7.800;2022-10-14T14:11:22;99305.53;;;18.58;nan
63556;BME280;49700;48.072;7.800;2022-10-14T14:13:54;99301.06;;;18.58;nan
63556;BME280;49700;48.072;7.800;2022-10-14T14:16:23;99296.03;;;18.55;nan
63556;BME280;49700;48.072;7.800;2022-10-14T14:18:50;99289.03;;;18.54;nan
63556;BME280;49700;48.072;7.800;2022-10-14T14:21:25;99290.72;;;18.55;nan
63556;BME280;49700;48.072;7.800;2022-10-14T14:23:56;99283.72;;;18.54;nan
63556;BME280;49700;48.072;7.800;2022-10-14T14:26:33;99285.41;;;18.55;nan
63556;BME280;49700;48.072;7.800;2022-10-14T14:29:05;99286.56;;;18.53;nan
63556;BME280;49700;48.072;7.800;2022-10-14T14:31:32;99288.38;;;18.52;nan
63556;BME280;49700;48.072;7.800;2022-10-14T14:33:58;99277.06;;;18.50;nan
63556;BME280;49700;48.072;7.800;2022-10-14T14:36:26;99270.22;;;18.48;nan
63556;BME280;49700;48.072;7.800;2022-10-14T14:38:55;99272.34;;;18.44;nan
63556;BME280;49700;48.072;7.800;2022-10-14T14:41:24;99265.38;;;18.43;nan
63556;BME280;49700;48.072;7.800;2022-10-14T14:43:57;99257.56;;;18.42;nan
63556;BME280;49700;48.072;7.800;2022-10-14T14:46:32;99261.88;;;18.43;nan
63556;BME280;49700;48.072;7.800;2022-10-14T14:49:00;99261.19;;;18.41;nan
63556;BME280;49700;48.072;7.800;2022-10-14T14:51:37;99254.38;;;18.38;nan
63556;BME280;49700;48.072;7.800;2022-10-14T14:54:05;99250.72;;;18.39;nan
63556;BME280;49700;48.072;7.800;2022-10-14T14:56:42;99237.25;;;18.41;nan
63556;BME280;49700;48.072;7.800;2022-10-14T14:59:18;99244.28;;;18.42;nan
63556;BME280;49700;48.072;7.800;2022-10-14T15:01:45;99251.38;;;18.41;nan
63556;BME280;49700;48.072;7.800;2022-10-14T15:04:16;99249.59;;;18.42;nan
63556;BME280;49700;48.072;7.800;2022-10-14T15:06:51;99233.63;;;18.42;nan
63556;BME280;49700;48.072;7.800;2022-10-14T15:09:37;99234.28;;;18.44;nan
63556;BME280;49700;48.072;7.800;2022-10-14T15:12:15;99235.28;;;18.43;nan
63556;BME280;49700;48.072;7.800;2022-10-14T15:14:46;99237.94;;;18.43;nan